Terminal Aerodrome Forecast
Issued by NWS

Home | Current Version | Previous Version | Text Only | Print | Product List | Glossary On
Versions: 1 2 3 4 5 6 7 8 9 10 11 12 13 14 15 16
000
FTUS43 KIND 231700
TAFLAF
TAF
KLAF 231849Z 2318/2418 01008KT P6SM SCT250
     FM232300 09007KT P6SM BKN100
     FM240300 11006KT P6SM SCT060 BKN100
     FM241400 14012KT P6SM BKN100
      AMD LTD TO CLD VIS AND WIND TIL 241300=

USA.gov is the U.S. government's official web portal to all federal, state and local government web resources and services.